Terminal Aerodrome Forecast
Issued by NWS

Home | Current Version | Previous Version | Text Only | Print | Product List | Glossary Off
Versions: 1 2 3 4 5 6 7 8 9 10 11 12 13 14 15 16 17 18 19 20

536
FTUS43 KBIS 211402 AAA
TAFDIK
TAF AMD
KDIK 211402Z 2114/2212 13023G33KT P6SM SCT009 BKN012
     FM211600 14020G34KT P6SM BKN080
     FM220600 16018G26KT P6SM VCTS BKN020CB OVC040=

USA.gov is the U.S. government's official web portal to all federal, state and local government web resources and services.